sensor_id;sensor_type;location;lat;lon;timestamp;P1;durP1;ratioP1;P2;durP2;ratioP2
12840;SDS011;6487;48.626;12.486;2023-05-20T00:00:07;5.07;;;4.57;;
12840;SDS011;6487;48.626;12.486;2023-05-20T00:02:38;5.20;;;4.70;;
12840;SDS011;6487;48.626;12.486;2023-05-20T00:05:07;4.70;;;4.23;;
12840;SDS011;6487;48.626;12.486;2023-05-20T00:07:36;4.80;;;4.40;;
12840;SDS011;6487;48.626;12.486;2023-05-20T00:10:04;4.70;;;4.30;;
12840;SDS011;6487;48.626;12.486;2023-05-20T00:12:34;4.10;;;3.77;;
12840;SDS011;6487;48.626;12.486;2023-05-20T00:15:02;4.53;;;4.13;;
12840;SDS011;6487;48.626;12.486;2023-05-20T00:17:32;5.07;;;4.43;;
12840;SDS011;6487;48.626;12.486;2023-05-20T00:20:05;5.43;;;4.50;;
12840;SDS011;6487;48.626;12.486;2023-05-20T00:22:34;4.60;;;4.20;;
12840;SDS011;6487;48.626;12.486;2023-05-20T00:25:03;4.93;;;4.53;;
12840;SDS011;6487;48.626;12.486;2023-05-20T00:27:32;4.77;;;4.27;;
12840;SDS011;6487;48.626;12.486;2023-05-20T00:30:00;3.87;;;3.57;;
12840;SDS011;6487;48.626;12.486;2023-05-20T00:32:29;4.03;;;3.73;;
12840;SDS011;6487;48.626;12.486;2023-05-20T00:34:57;4.20;;;3.80;;
12840;SDS011;6487;48.626;12.486;2023-05-20T00:37:28;4.90;;;4.40;;
12840;SDS011;6487;48.626;12.486;2023-05-20T00:39:59;6.50;;;4.40;;
12840;SDS011;6487;48.626;12.486;2023-05-20T00:42:28;4.23;;;3.93;;
12840;SDS011;6487;48.626;12.486;2023-05-20T00:45:01;4.87;;;4.47;;
12840;SDS011;6487;48.626;12.486;2023-05-20T00:47:32;4.63;;;4.23;;
12840;SDS011;6487;48.626;12.486;2023-05-20T00:50:05;4.90;;;4.50;;
12840;SDS011;6487;48.626;12.486;2023-05-20T00:52:37;4.70;;;4.30;;
12840;SDS011;6487;48.626;12.486;2023-05-20T00:55:07;4.30;;;4.00;;
12840;SDS011;6487;48.626;12.486;2023-05-20T00:57:36;5.57;;;4.60;;
12840;SDS011;6487;48.626;12.486;2023-05-20T01:00:04;4.60;;;4.20;;
12840;SDS011;6487;48.626;12.486;2023-05-20T01:02:36;4.50;;;4.10;;
12840;SDS011;6487;48.626;12.486;2023-05-20T01:05:05;5.60;;;5.10;;
12840;SDS011;6487;48.626;12.486;2023-05-20T01:07:34;4.63;;;4.00;;
12840;SDS011;6487;48.626;12.486;2023-05-20T01:10:04;4.63;;;4.20;;
12840;SDS011;6487;48.626;12.486;2023-05-20T01:12:36;6.17;;;4.20;;
12840;SDS011;6487;48.626;12.486;2023-05-20T01:15:08;5.93;;;4.27;;
12840;SDS011;6487;48.626;12.486;2023-05-20T01:17:39;5.13;;;4.63;;
12840;SDS011;6487;48.626;12.486;2023-05-20T01:20:14;4.77;;;4.37;;
12840;SDS011;6487;48.626;12.486;2023-05-20T01:22:48;4.90;;;4.40;;
12840;SDS011;6487;48.626;12.486;2023-05-20T01:25:21;4.23;;;3.90;;
12840;SDS011;6487;48.626;12.486;2023-05-20T01:27:50;5.50;;;4.47;;
12840;SDS011;6487;48.626;12.486;2023-05-20T01:30:21;5.97;;;4.33;;
12840;SDS011;6487;48.626;12.486;2023-05-20T01:32:51;5.03;;;4.53;;
12840;SDS011;6487;48.626;12.486;2023-05-20T01:35:24;4.40;;;4.10;;
12840;SDS011;6487;48.626;12.486;2023-05-20T01:37:55;5.40;;;4.90;;
12840;SDS011;6487;48.626;12.486;2023-05-20T01:40:24;5.23;;;4.73;;
12840;SDS011;6487;48.626;12.486;2023-05-20T01:42:54;4.93;;;4.53;;
12840;SDS011;6487;48.626;12.486;2023-05-20T01:45:24;5.03;;;4.53;;
12840;SDS011;6487;48.626;12.486;2023-05-20T01:47:53;5.10;;;4.60;;
12840;SDS011;6487;48.626;12.486;2023-05-20T01:50:21;5.43;;;4.93;;
12840;SDS011;6487;48.626;12.486;2023-05-20T01:52:50;5.10;;;4.70;;
12840;SDS011;6487;48.626;12.486;2023-05-20T01:55:19;7.37;;;5.17;;
12840;SDS011;6487;48.626;12.486;2023-05-20T01:57:48;5.13;;;4.70;;
12840;SDS011;6487;48.626;12.486;2023-05-20T02:00:16;5.00;;;4.50;;
12840;SDS011;6487;48.626;12.486;2023-05-20T02:02:45;4.60;;;4.20;;
12840;SDS011;6487;48.626;12.486;2023-05-20T02:05:16;4.60;;;4.20;;
12840;SDS011;6487;48.626;12.486;2023-05-20T02:07:44;5.33;;;4.83;;
12840;SDS011;6487;48.626;12.486;2023-05-20T02:10:13;7.30;;;4.80;;
12840;SDS011;6487;48.626;12.486;2023-05-20T02:12:43;4.97;;;4.47;;
12840;SDS011;6487;48.626;12.486;2023-05-20T02:15:13;5.83;;;5.23;;
12840;SDS011;6487;48.626;12.486;2023-05-20T02:17:41;5.40;;;4.90;;
12840;SDS011;6487;48.626;12.486;2023-05-20T02:20:10;5.83;;;5.23;;
12840;SDS011;6487;48.626;12.486;2023-05-20T02:22:39;5.57;;;4.73;;
12840;SDS011;6487;48.626;12.486;2023-05-20T02:25:11;5.03;;;4.63;;
12840;SDS011;6487;48.626;12.486;2023-05-20T02:27:39;5.70;;;5.20;;
12840;SDS011;6487;48.626;12.486;2023-05-20T02:30:09;5.17;;;4.70;;
12840;SDS011;6487;48.626;12.486;2023-05-20T02:32:41;5.80;;;5.30;;
12840;SDS011;6487;48.626;12.486;2023-05-20T02:35:12;5.67;;;5.17;;
12840;SDS011;6487;48.626;12.486;2023-05-20T02:37:41;5.30;;;4.80;;
12840;SDS011;6487;48.626;12.486;2023-05-20T02:40:11;5.53;;;5.03;;
12840;SDS011;6487;48.626;12.486;2023-05-20T02:42:39;5.97;;;5.47;;
12840;SDS011;6487;48.626;12.486;2023-05-20T02:45:09;5.80;;;5.23;;
12840;SDS011;6487;48.626;12.486;2023-05-20T02:47:38;7.23;;;5.57;;
12840;SDS011;6487;48.626;12.486;2023-05-20T02:50:06;5.90;;;5.00;;
12840;SDS011;6487;48.626;12.486;2023-05-20T02:52:35;5.87;;;5.37;;
12840;SDS011;6487;48.626;12.486;2023-05-20T02:55:05;6.90;;;5.27;;
12840;SDS011;6487;48.626;12.486;2023-05-20T02:57:34;5.60;;;5.00;;
12840;SDS011;6487;48.626;12.486;2023-05-20T03:00:04;6.10;;;5.30;;
12840;SDS011;6487;48.626;12.486;2023-05-20T03:02:37;6.00;;;5.40;;
12840;SDS011;6487;48.626;12.486;2023-05-20T03:05:06;5.20;;;4.80;;
12840;SDS011;6487;48.626;12.486;2023-05-20T03:07:36;6.40;;;5.77;;
12840;SDS011;6487;48.626;12.486;2023-05-20T03:10:05;6.37;;;5.77;;
12840;SDS011;6487;48.626;12.486;2023-05-20T03:12:35;5.20;;;4.80;;
12840;SDS011;6487;48.626;12.486;2023-05-20T03:15:04;5.47;;;4.97;;
12840;SDS011;6487;48.626;12.486;2023-05-20T03:17:34;6.13;;;5.60;;
12840;SDS011;6487;48.626;12.486;2023-05-20T03:20:04;5.60;;;4.87;;
12840;SDS011;6487;48.626;12.486;2023-05-20T03:22:34;6.23;;;5.43;;
12840;SDS011;6487;48.626;12.486;2023-05-20T03:25:05;5.20;;;4.80;;
12840;SDS011;6487;48.626;12.486;2023-05-20T03:27:34;6.00;;;5.40;;
12840;SDS011;6487;48.626;12.486;2023-05-20T03:30:03;6.00;;;5.17;;
12840;SDS011;6487;48.626;12.486;2023-05-20T03:32:33;6.10;;;5.60;;
12840;SDS011;6487;48.626;12.486;2023-05-20T03:35:04;6.00;;;5.40;;
12840;SDS011;6487;48.626;12.486;2023-05-20T03:37:34;5.67;;;5.17;;
12840;SDS011;6487;48.626;12.486;2023-05-20T03:40:03;6.00;;;5.40;;
12840;SDS011;6487;48.626;12.486;2023-05-20T03:42:35;6.37;;;5.77;;
12840;SDS011;6487;48.626;12.486;2023-05-20T03:45:07;7.43;;;6.03;;
12840;SDS011;6487;48.626;12.486;2023-05-20T03:47:37;6.47;;;5.97;;
12840;SDS011;6487;48.626;12.486;2023-05-20T03:50:07;6.00;;;5.40;;
12840;SDS011;6487;48.626;12.486;2023-05-20T03:52:37;6.03;;;5.53;;
12840;SDS011;6487;48.626;12.486;2023-05-20T03:55:06;6.33;;;5.80;;
12840;SDS011;6487;48.626;12.486;2023-05-20T03:57:35;5.80;;;5.30;;
12840;SDS011;6487;48.626;12.486;2023-05-20T04:00:04;6.53;;;5.90;;
12840;SDS011;6487;48.626;12.486;2023-05-20T04:02:39;6.30;;;5.73;;
12840;SDS011;6487;48.626;12.486;2023-05-20T04:05:09;6.90;;;6.30;;
12840;SDS011;6487;48.626;12.486;2023-05-20T04:07:39;6.40;;;5.90;;
12840;SDS011;6487;48.626;12.486;2023-05-20T04:10:08;6.10;;;5.00;;
12840;SDS011;6487;48.626;12.486;2023-05-20T04:12:37;8.27;;;6.03;;
12840;SDS011;6487;48.626;12.486;2023-05-20T04:15:05;5.90;;;5.40;;
12840;SDS011;6487;48.626;12.486;2023-05-20T04:17:35;5.40;;;4.90;;
12840;SDS011;6487;48.626;12.486;2023-05-20T04:20:06;6.13;;;5.53;;
12840;SDS011;6487;48.626;12.486;2023-05-20T04:22:38;6.37;;;5.77;;
12840;SDS011;6487;48.626;12.486;2023-05-20T04:25:06;6.00;;;5.50;;
12840;SDS011;6487;48.626;12.486;2023-05-20T04:27:35;6.20;;;5.60;;
12840;SDS011;6487;48.626;12.486;2023-05-20T04:30:05;5.80;;;5.20;;
12840;SDS011;6487;48.626;12.486;2023-05-20T04:32:35;6.30;;;4.93;;
12840;SDS011;6487;48.626;12.486;2023-05-20T04:35:05;6.30;;;5.50;;
12840;SDS011;6487;48.626;12.486;2023-05-20T04:37:38;6.27;;;5.67;;
12840;SDS011;6487;48.626;12.486;2023-05-20T04:40:10;6.13;;;5.53;;
12840;SDS011;6487;48.626;12.486;2023-05-20T04:42:42;6.17;;;5.63;;
12840;SDS011;6487;48.626;12.486;2023-05-20T04:45:11;6.63;;;5.07;;
12840;SDS011;6487;48.626;12.486;2023-05-20T04:47:39;6.47;;;5.87;;
12840;SDS011;6487;48.626;12.486;2023-05-20T04:50:10;11.33;;;5.97;;
12840;SDS011;6487;48.626;12.486;2023-05-20T04:52:40;7.07;;;6.37;;
12840;SDS011;6487;48.626;12.486;2023-05-20T04:55:11;6.30;;;5.80;;
12840;SDS011;6487;48.626;12.486;2023-05-20T04:57:41;6.47;;;5.87;;
12840;SDS011;6487;48.626;12.486;2023-05-20T05:00:10;6.97;;;5.53;;
12840;SDS011;6487;48.626;12.486;2023-05-20T05:02:42;7.70;;;5.97;;
12840;SDS011;6487;48.626;12.486;2023-05-20T05:05:11;6.20;;;5.70;;
12840;SDS011;6487;48.626;12.486;2023-05-20T05:07:40;6.60;;;6.00;;
12840;SDS011;6487;48.626;12.486;2023-05-20T05:10:09;6.17;;;5.67;;
12840;SDS011;6487;48.626;12.486;2023-05-20T05:12:38;5.80;;;5.30;;
12840;SDS011;6487;48.626;12.486;2023-05-20T05:15:07;6.90;;;6.30;;
12840;SDS011;6487;48.626;12.486;2023-05-20T05:17:36;6.20;;;5.70;;
12840;SDS011;6487;48.626;12.486;2023-05-20T05:20:05;6.23;;;5.73;;
12840;SDS011;6487;48.626;12.486;2023-05-20T05:22:35;6.43;;;5.93;;
12840;SDS011;6487;48.626;12.486;2023-05-20T05:25:07;6.60;;;6.00;;
12840;SDS011;6487;48.626;12.486;2023-05-20T05:27:37;6.30;;;5.80;;
12840;SDS011;6487;48.626;12.486;2023-05-20T05:30:06;6.20;;;5.70;;
12840;SDS011;6487;48.626;12.486;2023-05-20T05:32:36;7.40;;;6.53;;
12840;SDS011;6487;48.626;12.486;2023-05-20T05:35:05;6.17;;;5.73;;
12840;SDS011;6487;48.626;12.486;2023-05-20T05:37:33;6.57;;;6.07;;
12840;SDS011;6487;48.626;12.486;2023-05-20T05:40:02;6.70;;;6.10;;
12840;SDS011;6487;48.626;12.486;2023-05-20T05:42:32;6.80;;;6.20;;
12840;SDS011;6487;48.626;12.486;2023-05-20T05:45:01;7.47;;;6.80;;
12840;SDS011;6487;48.626;12.486;2023-05-20T05:47:29;6.63;;;5.97;;
12840;SDS011;6487;48.626;12.486;2023-05-20T05:49:58;6.47;;;5.63;;
12840;SDS011;6487;48.626;12.486;2023-05-20T05:52:29;6.97;;;6.37;;
12840;SDS011;6487;48.626;12.486;2023-05-20T05:54:57;6.60;;;6.10;;
12840;SDS011;6487;48.626;12.486;2023-05-20T05:57:29;5.83;;;5.37;;
12840;SDS011;6487;48.626;12.486;2023-05-20T06:00:05;7.03;;;6.43;;
12840;SDS011;6487;48.626;12.486;2023-05-20T06:02:34;7.00;;;6.40;;
12840;SDS011;6487;48.626;12.486;2023-05-20T06:05:03;6.87;;;6.37;;
12840;SDS011;6487;48.626;12.486;2023-05-20T06:07:33;7.13;;;5.97;;
12840;SDS011;6487;48.626;12.486;2023-05-20T06:10:04;6.70;;;6.10;;
12840;SDS011;6487;48.626;12.486;2023-05-20T06:12:34;6.80;;;6.20;;
12840;SDS011;6487;48.626;12.486;2023-05-20T06:15:07;7.37;;;6.67;;
12840;SDS011;6487;48.626;12.486;2023-05-20T06:17:36;7.77;;;6.97;;
12840;SDS011;6487;48.626;12.486;2023-05-20T06:20:17;8.37;;;7.50;;
12840;SDS011;6487;48.626;12.486;2023-05-20T06:22:46;7.07;;;6.37;;
12840;SDS011;6487;48.626;12.486;2023-05-20T06:25:17;7.63;;;6.90;;
12840;SDS011;6487;48.626;12.486;2023-05-20T06:27:46;6.87;;;6.27;;
12840;SDS011;6487;48.626;12.486;2023-05-20T06:30:15;7.83;;;7.13;;
12840;SDS011;6487;48.626;12.486;2023-05-20T06:32:44;6.70;;;6.20;;
12840;SDS011;6487;48.626;12.486;2023-05-20T06:35:13;6.67;;;6.00;;
12840;SDS011;6487;48.626;12.486;2023-05-20T06:37:41;6.50;;;5.97;;
12840;SDS011;6487;48.626;12.486;2023-05-20T06:40:11;6.73;;;6.13;;
12840;SDS011;6487;48.626;12.486;2023-05-20T06:42:39;7.10;;;6.17;;
12840;SDS011;6487;48.626;12.486;2023-05-20T06:45:12;6.53;;;5.93;;
12840;SDS011;6487;48.626;12.486;2023-05-20T06:47:40;6.60;;;6.10;;
12840;SDS011;6487;48.626;12.486;2023-05-20T06:50:09;7.93;;;6.27;;
12840;SDS011;6487;48.626;12.486;2023-05-20T06:52:38;6.97;;;5.67;;
12840;SDS011;6487;48.626;12.486;2023-05-20T06:55:06;6.57;;;5.87;;
12840;SDS011;6487;48.626;12.486;2023-05-20T06:57:36;6.97;;;6.20;;
12840;SDS011;6487;48.626;12.486;2023-05-20T07:00:05;6.30;;;5.70;;
12840;SDS011;6487;48.626;12.486;2023-05-20T07:02:36;6.20;;;5.60;;
12840;SDS011;6487;48.626;12.486;2023-05-20T07:05:05;8.87;;;6.00;;
12840;SDS011;6487;48.626;12.486;2023-05-20T07:07:35;7.70;;;5.70;;
12840;SDS011;6487;48.626;12.486;2023-05-20T07:10:03;11.00;;;5.73;;
12840;SDS011;6487;48.626;12.486;2023-05-20T07:12:33;6.30;;;5.67;;
12840;SDS011;6487;48.626;12.486;2023-05-20T07:15:08;6.20;;;5.60;;
12840;SDS011;6487;48.626;12.486;2023-05-20T07:17:38;5.63;;;5.03;;
12840;SDS011;6487;48.626;12.486;2023-05-20T07:20:07;6.50;;;5.90;;
12840;SDS011;6487;48.626;12.486;2023-05-20T07:22:36;7.47;;;6.27;;
12840;SDS011;6487;48.626;12.486;2023-05-20T07:25:05;6.83;;;5.93;;
12840;SDS011;6487;48.626;12.486;2023-05-20T07:27:34;6.40;;;5.70;;
12840;SDS011;6487;48.626;12.486;2023-05-20T07:30:03;6.57;;;5.97;;
12840;SDS011;6487;48.626;12.486;2023-05-20T07:32:33;6.23;;;5.63;;
12840;SDS011;6487;48.626;12.486;2023-05-20T07:35:04;7.27;;;5.80;;
12840;SDS011;6487;48.626;12.486;2023-05-20T07:37:32;5.83;;;5.33;;
12840;SDS011;6487;48.626;12.486;2023-05-20T07:40:01;5.93;;;5.43;;
12840;SDS011;6487;48.626;12.486;2023-05-20T07:42:30;6.17;;;5.47;;
12840;SDS011;6487;48.626;12.486;2023-05-20T07:44:59;8.07;;;5.53;;
12840;SDS011;6487;48.626;12.486;2023-05-20T07:47:30;6.80;;;6.10;;
12840;SDS011;6487;48.626;12.486;2023-05-20T07:49:58;6.37;;;5.77;;
12840;SDS011;6487;48.626;12.486;2023-05-20T07:52:28;6.00;;;5.50;;
12840;SDS011;6487;48.626;12.486;2023-05-20T07:55:17;7.13;;;6.00;;
12840;SDS011;6487;48.626;12.486;2023-05-20T07:57:47;8.57;;;5.73;;
12840;SDS011;6487;48.626;12.486;2023-05-20T08:00:16;6.53;;;5.63;;
12840;SDS011;6487;48.626;12.486;2023-05-20T08:02:45;8.47;;;5.63;;
12840;SDS011;6487;48.626;12.486;2023-05-20T08:05:14;6.27;;;5.77;;
12840;SDS011;6487;48.626;12.486;2023-05-20T08:07:44;5.93;;;5.47;;
12840;SDS011;6487;48.626;12.486;2023-05-20T08:10:12;5.67;;;5.10;;
12840;SDS011;6487;48.626;12.486;2023-05-20T08:12:41;6.00;;;5.40;;
12840;SDS011;6487;48.626;12.486;2023-05-20T08:15:10;5.57;;;5.17;;
12840;SDS011;6487;48.626;12.486;2023-05-20T08:17:39;7.63;;;5.20;;
12840;SDS011;6487;48.626;12.486;2023-05-20T08:20:08;5.90;;;5.40;;
12840;SDS011;6487;48.626;12.486;2023-05-20T08:22:38;5.63;;;5.13;;
12840;SDS011;6487;48.626;12.486;2023-05-20T08:25:09;5.40;;;4.90;;
12840;SDS011;6487;48.626;12.486;2023-05-20T08:27:37;5.13;;;4.60;;
12840;SDS011;6487;48.626;12.486;2023-05-20T08:30:07;6.00;;;5.40;;
12840;SDS011;6487;48.626;12.486;2023-05-20T08:32:36;5.90;;;5.30;;
12840;SDS011;6487;48.626;12.486;2023-05-20T08:35:05;5.20;;;4.70;;
12840;SDS011;6487;48.626;12.486;2023-05-20T08:37:34;5.93;;;5.33;;
12840;SDS011;6487;48.626;12.486;2023-05-20T08:40:03;6.03;;;5.47;;
12840;SDS011;6487;48.626;12.486;2023-05-20T08:42:33;5.63;;;5.10;;
12840;SDS011;6487;48.626;12.486;2023-05-20T08:45:07;5.40;;;4.97;;
12840;SDS011;6487;48.626;12.486;2023-05-20T08:47:40;6.53;;;5.93;;
12840;SDS011;6487;48.626;12.486;2023-05-20T08:50:10;7.07;;;5.43;;
12840;SDS011;6487;48.626;12.486;2023-05-20T08:52:41;5.80;;;5.30;;
12840;SDS011;6487;48.626;12.486;2023-05-20T08:55:13;8.87;;;5.83;;
12840;SDS011;6487;48.626;12.486;2023-05-20T08:57:44;5.60;;;4.90;;
12840;SDS011;6487;48.626;12.486;2023-05-20T09:00:13;5.70;;;4.90;;
12840;SDS011;6487;48.626;12.486;2023-05-20T09:02:44;5.77;;;5.23;;
12840;SDS011;6487;48.626;12.486;2023-05-20T09:05:17;6.00;;;5.47;;
12840;SDS011;6487;48.626;12.486;2023-05-20T09:07:46;5.77;;;5.20;;
12840;SDS011;6487;48.626;12.486;2023-05-20T09:10:15;4.93;;;4.47;;
12840;SDS011;6487;48.626;12.486;2023-05-20T09:12:45;6.43;;;5.83;;
12840;SDS011;6487;48.626;12.486;2023-05-20T09:15:16;5.23;;;4.83;;
12840;SDS011;6487;48.626;12.486;2023-05-20T09:17:48;7.70;;;5.53;;
12840;SDS011;6487;48.626;12.486;2023-05-20T09:20:20;6.13;;;5.53;;
12840;SDS011;6487;48.626;12.486;2023-05-20T09:22:49;6.40;;;5.80;;
12840;SDS011;6487;48.626;12.486;2023-05-20T09:25:21;5.83;;;5.33;;
12840;SDS011;6487;48.626;12.486;2023-05-20T09:27:54;5.90;;;5.30;;
12840;SDS011;6487;48.626;12.486;2023-05-20T09:30:23;5.90;;;5.17;;
12840;SDS011;6487;48.626;12.486;2023-05-20T09:32:52;6.30;;;5.70;;
12840;SDS011;6487;48.626;12.486;2023-05-20T09:35:21;5.73;;;5.23;;
12840;SDS011;6487;48.626;12.486;2023-05-20T09:37:51;7.43;;;5.03;;
12840;SDS011;6487;48.626;12.486;2023-05-20T09:40:22;10.57;;;5.83;;
12840;SDS011;6487;48.626;12.486;2023-05-20T09:42:55;6.10;;;5.60;;
12840;SDS011;6487;48.626;12.486;2023-05-20T09:45:28;6.13;;;5.63;;
12840;SDS011;6487;48.626;12.486;2023-05-20T09:47:57;6.00;;;5.50;;
12840;SDS011;6487;48.626;12.486;2023-05-20T09:50:28;8.77;;;6.03;;
12840;SDS011;6487;48.626;12.486;2023-05-20T09:53:01;6.53;;;5.70;;
12840;SDS011;6487;48.626;12.486;2023-05-20T09:55:30;5.93;;;5.40;;
12840;SDS011;6487;48.626;12.486;2023-05-20T09:58:02;7.50;;;6.03;;
12840;SDS011;6487;48.626;12.486;2023-05-20T10:00:30;6.30;;;5.70;;
12840;SDS011;6487;48.626;12.486;2023-05-20T10:02:59;7.30;;;5.73;;
12840;SDS011;6487;48.626;12.486;2023-05-20T10:05:29;6.07;;;5.57;;
12840;SDS011;6487;48.626;12.486;2023-05-20T10:08:09;7.43;;;6.80;;
12840;SDS011;6487;48.626;12.486;2023-05-20T10:11:24;6.83;;;6.23;;
12840;SDS011;6487;48.626;12.486;2023-05-20T10:14:09;8.73;;;6.27;;
12840;SDS011;6487;48.626;12.486;2023-05-20T10:16:57;6.63;;;5.43;;
12840;SDS011;6487;48.626;12.486;2023-05-20T10:19:35;5.37;;;4.97;;
12840;SDS011;6487;48.626;12.486;2023-05-20T10:22:04;6.57;;;5.97;;
12840;SDS011;6487;48.626;12.486;2023-05-20T10:24:34;5.93;;;5.50;;
12840;SDS011;6487;48.626;12.486;2023-05-20T10:27:07;6.50;;;5.90;;
12840;SDS011;6487;48.626;12.486;2023-05-20T10:29:45;5.90;;;5.40;;
12840;SDS011;6487;48.626;12.486;2023-05-20T10:32:23;7.00;;;6.30;;
12840;SDS011;6487;48.626;12.486;2023-05-20T10:34:57;6.73;;;6.13;;
12840;SDS011;6487;48.626;12.486;2023-05-20T10:37:28;6.40;;;5.90;;
12840;SDS011;6487;48.626;12.486;2023-05-20T10:40:05;6.80;;;6.20;;
12840;SDS011;6487;48.626;12.486;2023-05-20T10:42:35;6.90;;;6.30;;
12840;SDS011;6487;48.626;12.486;2023-05-20T10:45:05;6.73;;;6.13;;
12840;SDS011;6487;48.626;12.486;2023-05-20T10:47:35;6.63;;;5.93;;
12840;SDS011;6487;48.626;12.486;2023-05-20T10:50:04;6.33;;;5.87;;
12840;SDS011;6487;48.626;12.486;2023-05-20T10:52:35;5.83;;;5.43;;
12840;SDS011;6487;48.626;12.486;2023-05-20T10:55:04;12.03;;;6.33;;
12840;SDS011;6487;48.626;12.486;2023-05-20T10:57:34;6.43;;;5.83;;
12840;SDS011;6487;48.626;12.486;2023-05-20T11:00:05;6.83;;;5.80;;
12840;SDS011;6487;48.626;12.486;2023-05-20T11:02:36;6.00;;;5.40;;
12840;SDS011;6487;48.626;12.486;2023-05-20T11:05:05;6.00;;;5.50;;
12840;SDS011;6487;48.626;12.486;2023-05-20T11:07:37;6.33;;;5.77;;
12840;SDS011;6487;48.626;12.486;2023-05-20T11:10:07;6.37;;;5.77;;
12840;SDS011;6487;48.626;12.486;2023-05-20T11:12:37;7.57;;;6.00;;
12840;SDS011;6487;48.626;12.486;2023-05-20T11:15:09;7.87;;;6.37;;
12840;SDS011;6487;48.626;12.486;2023-05-20T11:17:50;6.90;;;6.30;;
12840;SDS011;6487;48.626;12.486;2023-05-20T11:20:20;7.80;;;7.13;;
12840;SDS011;6487;48.626;12.486;2023-05-20T11:22:50;6.97;;;6.30;;
12840;SDS011;6487;48.626;12.486;2023-05-20T11:25:19;6.67;;;6.07;;
12840;SDS011;6487;48.626;12.486;2023-05-20T11:27:49;6.80;;;6.20;;
12840;SDS011;6487;48.626;12.486;2023-05-20T11:30:19;6.80;;;6.30;;
12840;SDS011;6487;48.626;12.486;2023-05-20T11:32:57;6.23;;;5.73;;
12840;SDS011;6487;48.626;12.486;2023-05-20T11:35:28;8.77;;;6.97;;
12840;SDS011;6487;48.626;12.486;2023-05-20T11:38:00;6.73;;;6.13;;
12840;SDS011;6487;48.626;12.486;2023-05-20T11:40:31;8.57;;;6.33;;
12840;SDS011;6487;48.626;12.486;2023-05-20T11:43:14;6.87;;;6.27;;
12840;SDS011;6487;48.626;12.486;2023-05-20T11:45:44;7.43;;;6.10;;
12840;SDS011;6487;48.626;12.486;2023-05-20T11:48:14;7.67;;;6.27;;
12840;SDS011;6487;48.626;12.486;2023-05-20T11:50:44;7.80;;;5.93;;
12840;SDS011;6487;48.626;12.486;2023-05-20T11:53:13;6.90;;;6.40;;
12840;SDS011;6487;48.626;12.486;2023-05-20T11:55:43;7.17;;;6.57;;
12840;SDS011;6487;48.626;12.486;2023-05-20T11:58:17;6.93;;;6.30;;
12840;SDS011;6487;48.626;12.486;2023-05-20T12:00:48;6.70;;;6.10;;
12840;SDS011;6487;48.626;12.486;2023-05-20T12:03:30;7.20;;;6.43;;
12840;SDS011;6487;48.626;12.486;2023-05-20T12:05:59;6.27;;;5.87;;
12840;SDS011;6487;48.626;12.486;2023-05-20T12:08:28;7.17;;;6.47;;
12840;SDS011;6487;48.626;12.486;2023-05-20T12:10:57;7.00;;;6.40;;
12840;SDS011;6487;48.626;12.486;2023-05-20T12:13:25;8.73;;;6.80;;
12840;SDS011;6487;48.626;12.486;2023-05-20T12:15:55;7.27;;;6.57;;
12840;SDS011;6487;48.626;12.486;2023-05-20T12:18:23;6.57;;;5.97;;
12840;SDS011;6487;48.626;12.486;2023-05-20T12:20:52;6.60;;;6.00;;
12840;SDS011;6487;48.626;12.486;2023-05-20T12:23:20;6.87;;;6.23;;
12840;SDS011;6487;48.626;12.486;2023-05-20T12:25:49;6.32;;;5.82;;
12840;SDS011;6487;48.626;12.486;2023-05-20T12:28:17;6.85;;;6.18;;
12840;SDS011;6487;48.626;12.486;2023-05-20T12:30:46;6.35;;;5.80;;
12840;SDS011;6487;48.626;12.486;2023-05-20T12:33:16;7.20;;;6.28;;
12840;SDS011;6487;48.626;12.486;2023-05-20T12:35:45;6.63;;;6.03;;
12840;SDS011;6487;48.626;12.486;2023-05-20T12:38:14;12.80;;;6.30;;
12840;SDS011;6487;48.626;12.486;2023-05-20T12:40:42;7.03;;;6.43;;
12840;SDS011;6487;48.626;12.486;2023-05-20T12:43:11;7.25;;;6.53;;
12840;SDS011;6487;48.626;12.486;2023-05-20T12:45:39;7.00;;;6.50;;
12840;SDS011;6487;48.626;12.486;2023-05-20T12:48:08;7.68;;;6.60;;
12840;SDS011;6487;48.626;12.486;2023-05-20T12:50:38;6.45;;;5.85;;
12840;SDS011;6487;48.626;12.486;2023-05-20T12:53:06;7.05;;;6.32;;
12840;SDS011;6487;48.626;12.486;2023-05-20T12:55:35;8.32;;;6.50;;
12840;SDS011;6487;48.626;12.486;2023-05-20T12:58:04;9.80;;;6.43;;
12840;SDS011;6487;48.626;12.486;2023-05-20T13:00:34;6.55;;;6.03;;
12840;SDS011;6487;48.626;12.486;2023-05-20T13:03:02;7.07;;;6.38;;
12840;SDS011;6487;48.626;12.486;2023-05-20T13:05:31;7.82;;;6.47;;
12840;SDS011;6487;48.626;12.486;2023-05-20T13:08:03;7.00;;;6.30;;
12840;SDS011;6487;48.626;12.486;2023-05-20T13:10:34;7.40;;;6.70;;
12840;SDS011;6487;48.626;12.486;2023-05-20T13:13:03;6.50;;;5.97;;
12840;SDS011;6487;48.626;12.486;2023-05-20T13:15:32;7.28;;;6.57;;
12840;SDS011;6487;48.626;12.486;2023-05-20T13:18:00;7.30;;;6.13;;
12840;SDS011;6487;48.626;12.486;2023-05-20T13:20:32;6.77;;;6.07;;
12840;SDS011;6487;48.626;12.486;2023-05-20T13:23:02;6.97;;;6.28;;
12840;SDS011;6487;48.626;12.486;2023-05-20T13:25:30;7.00;;;6.30;;
12840;SDS011;6487;48.626;12.486;2023-05-20T13:27:59;8.25;;;6.75;;
12840;SDS011;6487;48.626;12.486;2023-05-20T13:30:27;6.68;;;6.15;;
12840;SDS011;6487;48.626;12.486;2023-05-20T13:32:56;6.68;;;6.05;;
12840;SDS011;6487;48.626;12.486;2023-05-20T13:35:24;7.07;;;6.33;;
12840;SDS011;6487;48.626;12.486;2023-05-20T13:37:53;6.78;;;6.15;;
12840;SDS011;6487;48.626;12.486;2023-05-20T13:40:23;6.90;;;6.27;;
12840;SDS011;6487;48.626;12.486;2023-05-20T13:42:51;7.03;;;6.30;;
12840;SDS011;6487;48.626;12.486;2023-05-20T13:45:21;7.80;;;6.00;;
12840;SDS011;6487;48.626;12.486;2023-05-20T13:47:49;7.28;;;6.43;;
12840;SDS011;6487;48.626;12.486;2023-05-20T13:50:18;6.38;;;5.88;;
12840;SDS011;6487;48.626;12.486;2023-05-20T13:52:46;6.82;;;6.18;;
12840;SDS011;6487;48.626;12.486;2023-05-20T13:55:15;16.33;;;6.80;;
12840;SDS011;6487;48.626;12.486;2023-05-20T13:57:47;6.00;;;5.60;;
12840;SDS011;6487;48.626;12.486;2023-05-20T14:00:18;9.37;;;6.97;;
12840;SDS011;6487;48.626;12.486;2023-05-20T14:02:47;7.83;;;7.07;;
12840;SDS011;6487;48.626;12.486;2023-05-20T14:05:16;7.10;;;6.50;;
12840;SDS011;6487;48.626;12.486;2023-05-20T14:07:45;8.10;;;6.03;;
12840;SDS011;6487;48.626;12.486;2023-05-20T14:10:13;7.30;;;6.57;;
12840;SDS011;6487;48.626;12.486;2023-05-20T14:12:42;7.00;;;6.50;;
12840;SDS011;6487;48.626;12.486;2023-05-20T14:15:14;7.27;;;6.57;;
12840;SDS011;6487;48.626;12.486;2023-05-20T14:17:43;7.00;;;6.40;;
12840;SDS011;6487;48.626;12.486;2023-05-20T14:20:11;6.53;;;6.03;;
12840;SDS011;6487;48.626;12.486;2023-05-20T14:22:40;6.63;;;6.03;;
12840;SDS011;6487;48.626;12.486;2023-05-20T14:25:08;7.93;;;6.30;;
12840;SDS011;6487;48.626;12.486;2023-05-20T14:27:37;9.40;;;6.57;;
12840;SDS011;6487;48.626;12.486;2023-05-20T14:30:05;8.53;;;7.17;;
12840;SDS011;6487;48.626;12.486;2023-05-20T14:32:37;6.90;;;6.20;;
12840;SDS011;6487;48.626;12.486;2023-05-20T14:35:06;7.33;;;6.73;;
12840;SDS011;6487;48.626;12.486;2023-05-20T14:37:35;7.43;;;6.67;;
12840;SDS011;6487;48.626;12.486;2023-05-20T14:40:04;6.00;;;5.60;;
12840;SDS011;6487;48.626;12.486;2023-05-20T14:42:33;6.63;;;6.03;;
12840;SDS011;6487;48.626;12.486;2023-05-20T14:45:02;7.10;;;6.37;;
12840;SDS011;6487;48.626;12.486;2023-05-20T14:47:32;6.90;;;6.30;;
12840;SDS011;6487;48.626;12.486;2023-05-20T14:50:02;7.20;;;6.50;;
12840;SDS011;6487;48.626;12.486;2023-05-20T14:52:33;6.77;;;6.17;;
12840;SDS011;6487;48.626;12.486;2023-05-20T14:55:02;6.63;;;6.03;;
12840;SDS011;6487;48.626;12.486;2023-05-20T14:57:31;6.80;;;6.20;;
12840;SDS011;6487;48.626;12.486;2023-05-20T14:59:59;7.50;;;6.37;;
12840;SDS011;6487;48.626;12.486;2023-05-20T15:02:28;7.53;;;6.93;;
12840;SDS011;6487;48.626;12.486;2023-05-20T15:04:57;7.10;;;6.40;;